Time;durP1;ratioP1;P1;durP2;ratioP2;P2;SDS_P1;SDS_P2;PMS_P1;PMS_P2;Temp;Humidity;BMP_temperature;BMP_pressure;BME280_temperature;BME280_humidity;BME280_pressure;Samples;Min_cycle;Max_cycle;Signal;HPM_P1;HPM_P2
2024/01/05 00:01:35;;;;;;;15.63;3.70;;;;;;;;;;5017773;28;20017;-77
2024/01/05 00:04:09;;;;;;;15.87;3.30;;;;;;;;;;5021495;28;20029;-77
2024/01/05 00:06:38;;;;;;;24.63;4.50;;;;;;;;;;5019117;28;20014;-77
2024/01/05 00:09:07;;;;;;;14.97;4.10;;;;;;;;;;5037239;28;20049;-77
2024/01/05 00:11:35;;;;;;;18.77;3.97;;;;;;;;;;5021442;28;20010;-79
2024/01/05 00:14:11;;;;;;;17.87;3.03;;;;;;;;;;5021226;28;20082;-78
2024/01/05 00:16:46;;;;;;;15.50;3.27;;;;;;;;;;5020579;28;20006;-79
2024/01/05 00:19:14;;;;;;;12.43;3.20;;;;;;;;;;5020348;28;20029;-78
2024/01/05 00:21:41;;;;;;;9.43;2.83;;;;;;;;;;5019790;28;20109;-77
2024/01/05 00:24:24;;;;;;;18.00;2.90;;;;;;;;;;5015376;28;20047;-77
2024/01/05 00:26:59;;;;;;;12.87;3.33;;;;;;;;;;5016512;28;20044;-77
2024/01/05 00:29:54;;;;;;;13.83;2.70;;;;;;;;;;5016776;28;20038;-77
2024/01/05 00:32:24;;;;;;;15.70;2.73;;;;;;;;;;5033854;28;20022;-79
2024/01/05 00:34:50;;;;;;;9.90;2.60;;;;;;;;;;5015931;28;20025;-78
2024/01/05 00:37:25;;;;;;;12.00;2.87;;;;;;;;;;5014572;28;20026;-78
2024/01/05 00:40:14;;;;;;;15.50;2.53;;;;;;;;;;5015367;28;20061;-78
2024/01/05 00:42:50;;;;;;;18.83;3.10;;;;;;;;;;5019806;28;20030;-77
2024/01/05 00:45:16;;;;;;;14.73;3.00;;;;;;;;;;5016620;28;20110;-77
2024/01/05 00:47:42;;;;;;;11.97;2.57;;;;;;;;;;5018153;28;20028;-77
2024/01/05 00:50:11;;;;;;;17.30;3.67;;;;;;;;;;5012880;28;20018;-77
2024/01/05 00:52:37;;;;;;;11.57;3.13;;;;;;;;;;5032113;28;20044;-78
2024/01/05 00:55:03;;;;;;;25.47;3.70;;;;;;;;;;5005784;28;20026;-77
2024/01/05 00:57:31;;;;;;;8.83;3.27;;;;;;;;;;5013849;28;20021;-77
2024/01/05 01:00:07;;;;;;;11.23;3.37;;;;;;;;;;5014751;28;20192;-77
2024/01/05 01:02:36;;;;;;;9.03;2.77;;;;;;;;;;5014478;28;20034;-77
2024/01/05 01:05:04;;;;;;;12.23;2.60;;;;;;;;;;5005208;28;20026;-77
2024/01/05 01:07:32;;;;;;;20.17;3.37;;;;;;;;;;5014316;28;20046;-78
2024/01/05 01:10:11;;;;;;;18.13;2.70;;;;;;;;;;5014383;28;20016;-77
2024/01/05 01:12:48;;;;;;;12.80;2.80;;;;;;;;;;5014278;28;20022;-77
2024/01/05 01:15:14;;;;;;;19.10;2.53;;;;;;;;;;4875374;28;3633990;-79
2024/01/05 01:17:56;;;;;;;11.97;2.90;;;;;;;;;;5011438;28;20026;-79
2024/01/05 01:20:29;;;;;;;12.73;2.30;;;;;;;;;;5014475;28;20034;-78
2024/01/05 01:23:05;;;;;;;;;;;;;;;;;;;;;
2024/01/05 01:25:37;;;;;;;14.57;3.80;;;;;;;;;;5032482;28;20061;-78
2024/01/05 01:28:13;;;;;;;;;;;;;;;;;;;;;
2024/01/05 01:30:39;;;;;;;15.20;2.33;;;;;;;;;;5032520;28;20048;-78
2024/01/05 01:33:05;;;;;;;12.03;2.70;;;;;;;;;;5006044;28;20045;-77
2024/01/05 01:35:31;;;;;;;12.20;3.03;;;;;;;;;;5015351;28;20013;-77
2024/01/05 01:37:57;;;;;;;15.83;3.73;;;;;;;;;;5015111;28;20045;-77
2024/01/05 01:40:26;;;;;;;17.37;3.40;;;;;;;;;;5014196;28;20060;-78
2024/01/05 01:42:55;;;;;;;15.40;2.97;;;;;;;;;;5032653;28;20014;-78
2024/01/05 01:45:26;;;;;;;18.73;2.83;;;;;;;;;;5014549;28;20026;-77
2024/01/05 01:48:12;;;;;;;11.10;2.33;;;;;;;;;;5014709;28;20033;-78
2024/01/05 01:50:44;;;;;;;15.63;3.00;;;;;;;;;;5015362;28;20044;-78
2024/01/05 01:53:19;;;;;;;24.35;3.58;;;;;;;;;;5032344;28;20029;-77
2024/01/05 01:55:47;;;;;;;15.63;2.30;;;;;;;;;;5015011;28;20029;-77
2024/01/05 01:58:22;;;;;;;12.77;3.03;;;;;;;;;;5013671;28;20034;-77
2024/01/05 02:00:54;;;;;;;16.40;3.30;;;;;;;;;;5014111;28;20032;-77
2024/01/05 02:03:23;;;;;;;13.27;2.55;;;;;;;;;;5014236;28;20033;-76
2024/01/05 02:05:58;;;;;;;13.67;2.83;;;;;;;;;;5014353;28;20036;-78
2024/01/05 02:08:35;;;;;;;12.63;2.57;;;;;;;;;;5014889;28;20026;-78
2024/01/05 02:11:01;;;;;;;14.27;2.63;;;;;;;;;;5036128;28;20073;-77
2024/01/05 02:16:20;;;;;;;16.67;3.28;;;;;;;;;;5031865;28;20046;-77
2024/01/05 02:18:59;;;;;;;15.17;2.43;;;;;;;;;;5017485;28;20029;-78
2024/01/05 02:21:29;;;;;;;19.90;2.90;;;;;;;;;;5018253;28;20018;-78
2024/01/05 02:24:11;;;;;;;13.20;3.40;;;;;;;;;;5017817;28;20021;-78
2024/01/05 02:26:46;;;;;;;15.30;3.47;;;;;;;;;;5035018;28;20036;-78
2024/01/05 02:29:21;;;;;;;20.03;3.40;;;;;;;;;;5015857;28;20277;-77
2024/01/05 02:31:59;;;;;;;20.53;3.83;;;;;;;;;;5016889;28;20030;-78
2024/01/05 02:34:27;;;;;;;13.73;3.43;;;;;;;;;;5018312;28;20101;-77
2024/01/05 02:36:55;;;;;;;12.23;3.00;;;;;;;;;;5017234;28;20022;-77
2024/01/05 02:40:07;;;;;;;;;;;;;;;;;;;;;
2024/01/05 02:42:34;;;;;;;12.10;3.10;;;;;;;;;;5032233;28;20022;-76
2024/01/05 02:45:10;;;;;;;;;;;;;;;;;;;;;
2024/01/05 02:47:49;;;;;;;11.23;2.53;;;;;;;;;;5034820;28;20049;-77
2024/01/05 02:50:21;;;;;;;15.17;2.80;;;;;;;;;;5016930;28;20018;-77
2024/01/05 02:52:47;;;;;;;8.73;2.05;;;;;;;;;;5019178;28;20033;-79
2024/01/05 02:55:19;;;;;;;16.07;2.90;;;;;;;;;;5020800;28;20044;-78
2024/01/05 02:57:47;;;;;;;13.20;2.90;;;;;;;;;;5005783;28;20034;-78
2024/01/05 03:00:13;;;;;;;13.73;2.33;;;;;;;;;;5020670;28;20030;-78
2024/01/05 03:02:42;;;;;;;8.80;2.20;;;;;;;;;;5020334;28;20030;-78
2024/01/05 03:05:08;;;;;;;12.77;3.30;;;;;;;;;;5037372;28;20020;-78
2024/01/05 03:07:37;;;;;;;9.20;2.33;;;;;;;;;;5018000;28;20037;-77
2024/01/05 03:10:10;;;;;;;11.47;2.20;;;;;;;;;;5036898;28;20085;-78
2024/01/05 03:12:38;;;;;;;16.73;3.93;;;;;;;;;;5018783;28;20052;-77
2024/01/05 03:15:17;;;;;;;;;;;;;;;;;;;;;
2024/01/05 03:17:48;;;;;;;9.47;3.07;;;;;;;;;;5035631;28;20034;-78
2024/01/05 03:20:20;;;;;;;8.83;1.87;;;;;;;;;;5017463;28;20068;-77
2024/01/05 03:22:46;;;;;;;13.43;1.90;;;;;;;;;;5015623;28;20009;-77
2024/01/05 03:25:15;;;;;;;10.23;1.87;;;;;;;;;;5020113;28;20018;-78
2024/01/05 03:27:43;;;;;;;12.23;2.23;;;;;;;;;;5017464;28;20026;-78
2024/01/05 03:30:12;;;;;;;12.97;2.13;;;;;;;;;;5019087;28;20037;-77
2024/01/05 03:32:45;;;;;;;11.27;2.30;;;;;;;;;;5016936;28;20028;-78
2024/01/05 03:35:14;;;;;;;13.37;2.73;;;;;;;;;;5035338;28;20029;-78
2024/01/05 03:37:52;;;;;;;12.70;2.17;;;;;;;;;;5007259;28;20065;-78
2024/01/05 03:40:18;;;;;;;8.47;1.87;;;;;;;;;;5018000;28;20046;-77
2024/01/05 03:42:44;;;;;;;10.53;3.07;;;;;;;;;;5017319;28;20045;-79
2024/01/05 03:45:12;;;;;;;10.27;1.80;;;;;;;;;;5057551;23;20060;-78
2024/01/05 03:47:38;;;;;;;9.97;2.07;;;;;;;;;;5020959;28;20026;-78
2024/01/05 03:50:14;;;;;;;9.63;2.13;;;;;;;;;;5018811;28;20022;-78
2024/01/05 03:52:41;;;;;;;11.77;2.70;;;;;;;;;;5026212;28;20022;-77
2024/01/05 03:55:16;;;;;;;9.40;2.60;;;;;;;;;;5022008;28;20029;-77
2024/01/05 03:57:50;;;;;;;13.97;2.00;;;;;;;;;;5024440;28;20041;-77
2024/01/05 04:00:16;;;;;;;9.40;1.97;;;;;;;;;;5018705;28;20041;-78
2024/01/05 04:02:42;;;;;;;13.60;2.37;;;;;;;;;;5018388;28;20061;-77
2024/01/05 04:05:11;;;;;;;15.90;2.43;;;;;;;;;;5018152;28;20047;-78
2024/01/05 04:07:39;;;;;;;8.07;2.43;;;;;;;;;;5016376;28;20021;-78
2024/01/05 04:10:11;;;;;;;9.80;2.43;;;;;;;;;;5016315;28;20030;-78
2024/01/05 04:12:41;;;;;;;8.53;1.70;;;;;;;;;;5016218;28;20089;-78
2024/01/05 04:15:17;;;;;;;6.90;1.63;;;;;;;;;;5018802;28;20076;-77
2024/01/05 04:17:43;;;;;;;10.87;2.63;;;;;;;;;;5021458;28;20045;-78
2024/01/05 04:20:10;;;;;;;12.33;2.07;;;;;;;;;;5016914;28;20038;-78
2024/01/05 04:22:43;;;;;;;10.37;2.27;;;;;;;;;;5019013;28;20026;-78
2024/01/05 04:25:12;;;;;;;11.13;2.10;;;;;;;;;;5020025;28;20057;-77
2024/01/05 04:27:51;;;;;;;14.37;2.93;;;;;;;;;;5017215;28;20014;-78
2024/01/05 04:30:35;;;;;;;8.10;2.07;;;;;;;;;;5019443;28;20027;-78
2024/01/05 04:33:11;;;;;;;;;;;;;;;;;;;;;
2024/01/05 04:35:40;;;;;;;13.67;2.07;;;;;;;;;;5036325;28;20029;-77
2024/01/05 04:38:12;;;;;;;5.07;1.33;;;;;;;;;;5018763;28;20017;-78
2024/01/05 04:40:41;;;;;;;12.67;1.53;;;;;;;;;;5018531;28;20130;-78
2024/01/05 04:43:10;;;;;;;7.93;1.60;;;;;;;;;;5017749;28;20264;-77
2024/01/05 04:45:41;;;;;;;6.63;1.73;;;;;;;;;;5074430;23;20038;-79
2024/01/05 04:48:12;;;;;;;8.90;1.60;;;;;;;;;;4996183;28;20014;-80
2024/01/05 04:50:41;;;;;;;7.33;1.40;;;;;;;;;;4989071;28;20050;-78
2024/01/05 04:53:07;;;;;;;10.70;2.27;;;;;;;;;;4997491;28;20014;-77
2024/01/05 04:55:53;;;;;;;6.17;1.43;;;;;;;;;;4991057;28;20015;-78
2024/01/05 04:58:19;;;;;;;8.17;1.67;;;;;;;;;;4995252;28;20046;-78
2024/01/05 05:01:17;;;;;;;5.53;1.53;;;;;;;;;;5015252;28;20089;-78
2024/01/05 05:03:49;;;;;;;9.07;1.67;;;;;;;;;;5009269;28;20095;-78
2024/01/05 05:06:15;;;;;;;9.73;2.20;;;;;;;;;;5011452;28;20011;-78
2024/01/05 05:08:46;;;;;;;6.97;1.67;;;;;;;;;;5011138;28;20050;-78
2024/01/05 05:11:33;;;;;;;7.23;1.40;;;;;;;;;;4994332;28;20019;-76
2024/01/05 05:14:03;;;;;;;8.53;1.57;;;;;;;;;;5017342;28;20074;-78
2024/01/05 05:16:37;;;;;;;7.87;1.50;;;;;;;;;;5001043;28;20011;-78
2024/01/05 05:19:08;;;;;;;12.50;1.97;;;;;;;;;;4991180;28;20023;-78
2024/01/05 05:21:39;;;;;;;9.90;1.40;;;;;;;;;;5009839;28;20030;-78
2024/01/05 05:24:13;;;;;;;10.37;1.63;;;;;;;;;;5013435;28;20060;-78
2024/01/05 05:26:56;;;;;;;9.17;1.50;;;;;;;;;;4999177;28;20015;-78
2024/01/05 05:29:25;;;;;;;6.53;1.43;;;;;;;;;;5010058;28;20018;-77
2024/01/05 05:31:51;;;;;;;6.50;1.40;;;;;;;;;;5007456;28;20041;-77
2024/01/05 05:34:20;;;;;;;7.50;1.40;;;;;;;;;;4998496;28;20082;-77
2024/01/05 05:36:52;;;;;;;11.40;1.60;;;;;;;;;;5006869;28;20029;-78
2024/01/05 05:39:34;;;;;;;;;;;;;;;;;;;;;
2024/01/05 05:42:00;;;;;;;11.73;2.50;;;;;;;;;;5009379;28;20050;-78
2024/01/05 05:44:29;;;;;;;5.33;1.70;;;;;;;;;;5012603;28;20042;-79
2024/01/05 05:46:56;;;;;;;9.17;1.73;;;;;;;;;;5019582;28;20018;-80
2024/01/05 05:49:24;;;;;;;9.53;2.00;;;;;;;;;;5001851;28;20033;-78
2024/01/05 05:51:59;;;;;;;8.63;1.40;;;;;;;;;;5012433;28;20047;-78
2024/01/05 05:54:27;;;;;;;7.90;2.03;;;;;;;;;;5020578;28;20027;-78
2024/01/05 05:56:56;;;;;;;10.47;1.70;;;;;;;;;;5018673;28;20010;-80
2024/01/05 05:59:25;;;;;;;6.97;1.20;;;;;;;;;;5018530;28;20045;-79
2024/01/05 06:01:51;;;;;;;5.73;1.23;;;;;;;;;;5004167;28;20035;-79
2024/01/05 06:04:19;;;;;;;6.13;1.20;;;;;;;;;;5009984;28;20010;-78
2024/01/05 06:07:03;;;;;;;7.93;1.77;;;;;;;;;;5013790;28;20014;-78
2024/01/05 06:09:32;;;;;;;6.43;1.53;;;;;;;;;;5017789;28;20042;-79
2024/01/05 06:12:00;;;;;;;6.43;1.47;;;;;;;;;;5019986;28;20018;-78
2024/01/05 06:14:49;;;;;;;11.87;1.77;;;;;;;;;;4991461;28;20082;-79
2024/01/05 06:17:18;;;;;;;9.43;1.83;;;;;;;;;;5018632;28;20018;-77
2024/01/05 06:19:56;;;;;;;6.30;1.47;;;;;;;;;;5001770;28;20061;-77
2024/01/05 06:22:22;;;;;;;7.83;1.60;;;;;;;;;;5012526;28;20038;-77
2024/01/05 06:24:56;;;;;;;9.97;1.27;;;;;;;;;;5009931;28;20046;-77
2024/01/05 06:27:24;;;;;;;6.47;1.80;;;;;;;;;;5014682;28;20013;-78
2024/01/05 06:29:50;;;;;;;8.57;1.50;;;;;;;;;;5009925;28;20037;-78
2024/01/05 06:32:21;;;;;;;9.93;1.93;;;;;;;;;;4992439;28;20026;-77
2024/01/05 06:34:47;;;;;;;6.97;1.90;;;;;;;;;;4991392;28;20019;-79
2024/01/05 06:37:35;;;;;;;6.37;1.53;;;;;;;;;;5014321;28;20079;-77
2024/01/05 06:40:04;;;;;;;9.60;1.73;;;;;;;;;;4991053;28;20358;-80
2024/01/05 06:42:45;;;;;;;8.77;1.77;;;;;;;;;;4996366;28;20019;-77
2024/01/05 06:45:24;;;;;;;9.67;1.80;;;;;;;;;;5012944;28;20025;-77
2024/01/05 06:47:57;;;;;;;9.87;1.60;;;;;;;;;;4998754;28;20034;-78
2024/01/05 06:50:27;;;;;;;5.80;1.63;;;;;;;;;;5011443;28;20030;-78
2024/01/05 06:52:58;;;;;;;9.17;1.63;;;;;;;;;;5015785;28;20038;-77
2024/01/05 06:55:29;;;;;;;7.03;1.40;;;;;;;;;;5010365;28;20042;-77
2024/01/05 06:58:01;;;;;;;6.83;1.47;;;;;;;;;;5012515;28;20090;-79
2024/01/05 07:03:13;;;;;;;;;;;;;;;;;;;;;
2024/01/05 07:05:52;;;;;;;5.17;1.17;;;;;;;;;;5034998;28;20049;-77
2024/01/05 07:08:24;;;;;;;8.73;1.90;;;;;;;;;;5017824;28;20038;-77
2024/01/05 07:10:52;;;;;;;5.10;1.33;;;;;;;;;;5018028;28;20041;-78
2024/01/05 07:16:20;;;;;;;4.13;0.97;;;;;;;;;;5023355;28;20026;-77
2024/01/05 07:21:59;;;;;;;11.23;1.93;;;;;;;;;;5029660;28;20027;-77
2024/01/05 07:24:57;;;;;;;4.20;1.00;;;;;;;;;;5008701;28;20068;-78
2024/01/05 07:27:23;;;;;;;6.90;1.60;;;;;;;;;;5010985;28;20231;-77
2024/01/05 07:29:49;;;;;;;5.90;2.03;;;;;;;;;;5017055;28;20028;-77
2024/01/05 07:32:20;;;;;;;6.40;1.40;;;;;;;;;;5016351;28;20083;-77
2024/01/05 07:34:52;;;;;;;5.63;1.80;;;;;;;;;;5017103;28;20026;-79
2024/01/05 07:37:37;;;;;;;6.28;1.90;;;;;;;;;;5008031;28;20049;-81
2024/01/05 07:40:13;;;;;;;8.67;1.90;;;;;;;;;;5016936;28;20029;-78
2024/01/05 07:42:43;;;;;;;7.70;1.80;;;;;;;;;;5016513;28;20026;-78
2024/01/05 07:45:12;;;;;;;11.00;1.63;;;;;;;;;;5016594;28;20101;-77
2024/01/05 07:47:38;;;;;;;7.80;2.00;;;;;;;;;;5016186;28;20038;-77
2024/01/05 07:50:12;;;;;;;5.30;1.27;;;;;;;;;;5034177;28;20018;-77
2024/01/05 07:52:46;;;;;;;6.53;1.83;;;;;;;;;;5016446;28;20026;-77
2024/01/05 07:55:15;;;;;;;4.83;1.90;;;;;;;;;;5016819;28;20018;-78
2024/01/05 07:57:48;;;;;;;5.17;1.23;;;;;;;;;;5013894;28;20034;-77
2024/01/05 08:00:31;;;;;;;5.30;1.40;;;;;;;;;;5016688;28;20056;-78
2024/01/05 08:03:03;;;;;;;8.40;1.63;;;;;;;;;;5016991;28;20041;-77
2024/01/05 08:05:37;;;;;;;6.60;1.17;;;;;;;;;;5016531;28;20034;-77
2024/01/05 08:08:04;;;;;;;8.17;1.97;;;;;;;;;;5016864;28;20030;-77
2024/01/05 08:10:38;;;;;;;2.97;0.97;;;;;;;;;;5016509;28;20009;-77
2024/01/05 08:13:06;;;;;;;4.40;1.00;;;;;;;;;;5016492;28;20030;-77
2024/01/05 08:15:32;;;;;;;5.43;1.07;;;;;;;;;;5034048;28;20014;-76
2024/01/05 08:18:04;;;;;;;6.43;1.30;;;;;;;;;;5016665;28;20021;-78
2024/01/05 08:23:42;;;;;;;4.93;1.20;;;;;;;;;;5034209;28;20269;-79
2024/01/05 08:29:14;;;;;;;4.17;1.03;;;;;;;;;;5033730;28;20038;-77
2024/01/05 08:34:31;;;;;;;11.07;1.23;;;;;;;;;;5033916;28;20025;-79
2024/01/05 08:37:04;;;;;;;6.53;0.90;;;;;;;;;;5016643;28;20022;-78
2024/01/05 08:39:34;;;;;;;;;;;;;;;;;;5016000;28;20037;-78
2024/01/05 08:42:22;;;;;;;1.83;0.63;;;;;;;;;;5009473;28;19968;-79
2024/01/05 08:44:50;;;;;;;3.40;0.80;;;;;;;;;;5018254;28;20034;-79
2024/01/05 08:47:22;;;;;;;3.40;0.60;;;;;;;;;;5017681;28;20028;-77
2024/01/05 08:49:56;;;;;;;2.65;0.52;;;;;;;;;;5020108;28;20034;-78
2024/01/05 08:52:24;;;;;;;1.33;0.60;;;;;;;;;;5020188;28;20101;-78
2024/01/05 08:54:56;;;;;;;1.27;0.30;;;;;;;;;;5016233;28;20014;-78
2024/01/05 08:57:47;;;;;;;3.10;0.47;;;;;;;;;;5021175;28;20034;-78
2024/01/05 09:00:18;;;;;;;1.63;0.50;;;;;;;;;;5018624;28;20049;-78
2024/01/05 09:02:49;;;;;;;0.83;0.30;;;;;;;;;;5017413;28;20024;-78
2024/01/05 09:05:19;;;;;;;2.83;0.37;;;;;;;;;;5015056;28;20048;-78
2024/01/05 09:07:55;;;;;;;;;;;;;;;;;;;;;
2024/01/05 09:10:23;;;;;;;2.30;0.40;;;;;;;;;;5036835;28;20048;-78
2024/01/05 09:12:59;;;;;;;3.20;0.50;;;;;;;;;;5015957;28;20031;-78
2024/01/05 09:15:28;;;;;;;1.33;0.33;;;;;;;;;;5078424;23;20039;-78
2024/01/05 09:17:54;;;;;;;1.87;0.53;;;;;;;;;;5005405;28;20037;-76
2024/01/05 09:20:30;;;;;;;;;;;;;;;;;;;;;
2024/01/05 09:23:11;;;;;;;1.63;0.30;;;;;;;;;;5016693;28;20064;-78
2024/01/05 09:25:39;;;;;;;1.10;0.30;;;;;;;;;;5006400;28;20197;-77
2024/01/05 09:28:06;;;;;;;0.67;0.33;;;;;;;;;;5004345;28;20030;-80
2024/01/05 09:30:37;;;;;;;1.00;0.20;;;;;;;;;;4998583;28;21068;-77
2024/01/05 09:33:14;;;;;;;1.07;0.20;;;;;;;;;;5018163;28;20110;-77
2024/01/05 09:35:40;;;;;;;3.13;0.40;;;;;;;;;;5012328;28;20041;-79
2024/01/05 09:38:09;;;;;;;1.47;0.30;;;;;;;;;;5020247;28;20023;-78
2024/01/05 09:40:44;;;;;;;1.10;0.20;;;;;;;;;;4998253;28;20022;-80
2024/01/05 09:43:18;;;;;;;0.57;0.20;;;;;;;;;;5006304;28;20065;-79
2024/01/05 09:45:45;;;;;;;0.83;0.10;;;;;;;;;;5002251;28;20031;-78
2024/01/05 09:48:14;;;;;;;2.70;0.20;;;;;;;;;;5007657;28;20028;-78
2024/01/05 09:50:59;;;;;;;3.50;0.20;;;;;;;;;;5017293;28;20038;-79
2024/01/05 09:53:28;;;;;;;0.30;0.20;;;;;;;;;;5005984;28;20010;-78
2024/01/05 09:55:57;;;;;;;1.00;0.23;;;;;;;;;;5017856;28;20026;-77
2024/01/05 09:58:23;;;;;;;1.80;0.40;;;;;;;;;;5008237;28;20026;-78
2024/01/05 10:00:57;;;;;;;2.40;0.40;;;;;;;;;;5020054;28;20025;-79
2024/01/05 10:03:54;;;;;;;0.73;0.23;;;;;;;;;;5018095;28;20033;-78
2024/01/05 10:06:30;;;;;;;1.93;0.40;;;;;;;;;;5009166;28;20065;-78
2024/01/05 10:08:58;;;;;;;3.30;0.40;;;;;;;;;;4997205;28;20038;-79
2024/01/05 10:11:36;;;;;;;2.53;0.40;;;;;;;;;;5018471;28;20018;-78
2024/01/05 10:16:55;;;;;;;1.98;0.35;;;;;;;;;;5019675;28;20037;-78
2024/01/05 10:19:23;;;;;;;2.27;0.40;;;;;;;;;;5020042;28;20042;-79
2024/01/05 10:21:52;;;;;;;2.53;0.50;;;;;;;;;;5002965;28;20021;-78
2024/01/05 10:24:31;;;;;;;0.40;0.20;;;;;;;;;;5002764;28;20039;-79
2024/01/05 10:27:09;;;;;;;0.73;0.30;;;;;;;;;;5018892;28;20545;-79
2024/01/05 10:29:55;;;;;;;0.53;0.23;;;;;;;;;;5015926;28;20033;-77
2024/01/05 10:32:21;;;;;;;2.57;0.60;;;;;;;;;;4999424;28;20014;-78
2024/01/05 10:34:56;;;;;;;0.90;0.40;;;;;;;;;;5009937;28;20189;-79
2024/01/05 10:37:32;;;;;;;;;;;;;;;;;;;;;
2024/01/05 10:40:03;;;;;;;0.50;0.20;;;;;;;;;;5020926;28;20049;-78
2024/01/05 10:42:39;;;;;;;0.37;0.20;;;;;;;;;;5023056;28;20041;-80
2024/01/05 10:45:10;;;;;;;2.23;0.30;;;;;;;;;;5004278;28;20012;-77
2024/01/05 10:47:37;;;;;;;0.47;0.13;;;;;;;;;;5002262;28;20015;-77
2024/01/05 10:50:06;;;;;;;0.87;0.20;;;;;;;;;;5020511;28;20037;-77
2024/01/05 10:52:32;;;;;;;0.70;0.17;;;;;;;;;;5007790;28;20015;-77
2024/01/05 10:55:03;;;;;;;0.77;0.20;;;;;;;;;;5006252;28;20046;-77
2024/01/05 10:57:47;;;;;;;2.27;0.40;;;;;;;;;;5005928;28;20006;-77
2024/01/05 11:00:13;;;;;;;2.67;0.50;;;;;;;;;;5014419;28;20022;-77
2024/01/05 11:02:40;;;;;;;0.73;0.30;;;;;;;;;;5004199;28;20025;-76
2024/01/05 11:05:18;;;;;;;1.50;0.33;;;;;;;;;;5003716;28;20083;-78
2024/01/05 11:07:50;;;;;;;2.10;1.07;;;;;;;;;;5018713;28;20014;-77
2024/01/05 11:10:25;;;;;;;3.70;1.00;;;;;;;;;;5005398;28;20015;-78
2024/01/05 11:13:06;;;;;;;1.33;0.37;;;;;;;;;;5005951;28;20045;-77
2024/01/05 11:15:43;;;;;;;0.60;0.20;;;;;;;;;;5013181;28;20045;-78
2024/01/05 11:18:24;;;;;;;2.30;0.60;;;;;;;;;;5002255;28;20015;-78
2024/01/05 11:21:09;;;;;;;1.87;0.40;;;;;;;;;;5013909;28;20023;-79
2024/01/05 11:23:47;;;;;;;1.87;0.20;;;;;;;;;;4991360;28;20015;-78
2024/01/05 11:26:42;;;;;;;0.80;0.33;;;;;;;;;;4999603;28;20014;-77
2024/01/05 11:29:14;;;;;;;1.50;0.50;;;;;;;;;;5014427;28;20062;-79
2024/01/05 11:31:46;;;;;;;3.53;0.65;;;;;;;;;;5009675;28;20117;-81
2024/01/05 11:34:42;;;;;;;1.25;0.40;;;;;;;;;;5005648;28;20024;-79
2024/01/05 11:37:18;;;;;;;2.00;0.40;;;;;;;;;;4987038;28;20030;-79
2024/01/05 11:39:45;;;;;;;1.00;0.40;;;;;;;;;;5000460;28;20022;-78
2024/01/05 11:42:29;;;;;;;1.30;0.40;;;;;;;;;;5007034;28;20026;-78
2024/01/05 11:45:00;;;;;;;0.73;0.30;;;;;;;;;;5006637;28;20010;-79
2024/01/05 11:47:50;;;;;;;2.23;0.30;;;;;;;;;;5002548;28;20082;-79
2024/01/05 11:50:30;;;;;;;1.07;0.20;;;;;;;;;;5003452;28;20041;-77
2024/01/05 11:53:17;;;;;;;0.73;0.40;;;;;;;;;;5001948;28;20022;-77
2024/01/05 11:55:55;;;;;;;2.53;0.33;;;;;;;;;;5016054;28;20014;-77
2024/01/05 11:58:22;;;;;;;2.17;0.47;;;;;;;;;;5009061;28;20018;-77
2024/01/05 12:00:52;;;;;;;2.97;0.50;;;;;;;;;;5014307;28;20057;-78
2024/01/05 12:03:20;;;;;;;2.90;0.57;;;;;;;;;;5011969;28;20085;-78
2024/01/05 12:05:50;;;;;;;2.77;0.30;;;;;;;;;;5006764;28;20018;-77
2024/01/05 12:08:17;;;;;;;4.83;0.90;;;;;;;;;;5017230;28;20037;-78
2024/01/05 12:10:45;;;;;;;2.37;0.50;;;;;;;;;;5002637;28;20021;-77
2024/01/05 12:13:17;;;;;;;1.23;0.50;;;;;;;;;;5021464;28;20037;-77
2024/01/05 12:15:52;;;;;;;2.40;0.57;;;;;;;;;;5002787;28;20022;-78
2024/01/05 12:18:25;;;;;;;1.20;0.40;;;;;;;;;;5001497;28;20061;-79
2024/01/05 12:20:58;;;;;;;1.33;0.30;;;;;;;;;;5014363;28;20022;-79
2024/01/05 12:23:32;;;;;;;0.80;0.10;;;;;;;;;;4999637;28;20053;-78
2024/01/05 12:25:59;;;;;;;1.03;0.30;;;;;;;;;;5000193;28;20031;-77
2024/01/05 12:28:38;;;;;;;;;;;;;;;;;;;;;
2024/01/05 12:31:10;;;;;;;2.77;0.50;;;;;;;;;;5016424;28;20037;-77
2024/01/05 12:33:39;;;;;;;1.23;0.50;;;;;;;;;;5002085;28;20027;-77
2024/01/05 12:36:12;;;;;;;2.27;0.60;;;;;;;;;;4997747;28;20037;-78
2024/01/05 12:38:41;;;;;;;3.57;1.13;;;;;;;;;;4998647;28;20098;-77
2024/01/05 12:41:08;;;;;;;1.33;0.30;;;;;;;;;;5001261;28;20014;-78
2024/01/05 12:44:01;;;;;;;3.60;0.77;;;;;;;;;;4999868;28;20077;-78
2024/01/05 12:46:36;;;;;;;2.07;0.53;;;;;;;;;;5017414;28;20030;-78
2024/01/05 12:49:30;;;;;;;;;;;;;;;;;;;;;
2024/01/05 12:51:56;;;;;;;1.13;0.40;;;;;;;;;;5019092;28;20044;-78
2024/01/05 12:54:45;;;;;;;2.27;0.50;;;;;;;;;;5001731;28;20028;-79
2024/01/05 12:57:13;;;;;;;1.80;0.50;;;;;;;;;;5018894;28;20029;-79
2024/01/05 12:59:46;;;;;;;4.03;0.80;;;;;;;;;;5001245;28;20038;-80
2024/01/05 13:02:56;;;;;;;3.13;0.30;;;;;;;;;;5000543;28;20073;-77
2024/01/05 13:05:29;;;;;;;3.10;0.63;;;;;;;;;;4953830;29;20107;-77
2024/01/05 13:10:52;;;;;;;2.73;0.40;;;;;;;;;;4950649;28;19911;-77
2024/01/05 13:13:23;;;;;;;3.10;0.43;;;;;;;;;;4937147;29;20028;-77
2024/01/05 13:15:50;;;;;;;1.73;0.50;;;;;;;;;;4953712;29;20103;-77
2024/01/05 13:18:26;;;;;;;2.90;0.70;;;;;;;;;;4954375;29;20027;-78
2024/01/05 13:20:55;;;;;;;4.60;0.53;;;;;;;;;;4953903;28;20054;-78
2024/01/05 13:23:33;;;;;;;4.13;0.97;;;;;;;;;;4953800;29;20142;-78
2024/01/05 13:26:03;;;;;;;2.30;0.50;;;;;;;;;;4935971;29;20017;-78
2024/01/05 13:28:40;;;;;;;3.87;0.80;;;;;;;;;;4952150;29;20027;-78
2024/01/05 13:31:10;;;;;;;3.60;0.63;;;;;;;;;;4950463;29;20079;-78
2024/01/05 13:33:42;;;;;;;4.67;1.27;;;;;;;;;;4937943;28;20043;-78
2024/01/05 13:36:31;;;;;;;3.83;0.65;;;;;;;;;;4993232;28;20225;-82
2024/01/05 13:38:57;;;;;;;3.50;0.40;;;;;;;;;;5002045;28;20027;-79
2024/01/05 13:41:23;;;;;;;4.00;0.83;;;;;;;;;;5003017;28;20082;-77
2024/01/05 13:43:51;;;;;;;6.00;0.50;;;;;;;;;;5001153;28;20044;-80
2024/01/05 13:46:18;;;;;;;3.20;0.70;;;;;;;;;;5021306;28;20026;-78
2024/01/05 13:48:44;;;;;;;3.90;0.70;;;;;;;;;;5001797;28;20080;-80
2024/01/05 13:51:10;;;;;;;5.27;0.80;;;;;;;;;;5012122;28;20030;-78
2024/01/05 13:53:36;;;;;;;3.90;0.80;;;;;;;;;;5000025;28;20050;-79
2024/01/05 13:56:07;;;;;;;2.70;0.53;;;;;;;;;;5017587;28;20081;-78
2024/01/05 13:58:33;;;;;;;3.10;0.63;;;;;;;;;;5001210;28;20022;-78
2024/01/05 14:01:20;;;;;;;4.87;0.70;;;;;;;;;;5002395;28;20030;-78
2024/01/05 14:03:51;;;;;;;5.10;0.73;;;;;;;;;;5016972;28;20085;-77
2024/01/05 14:06:17;;;;;;;2.43;0.53;;;;;;;;;;5006173;28;20053;-78
2024/01/05 14:08:43;;;;;;;4.50;0.80;;;;;;;;;;5004003;28;20033;-78
2024/01/05 14:11:24;;;;;;;1.53;0.57;;;;;;;;;;5004496;28;20030;-80
2024/01/05 14:13:51;;;;;;;3.57;0.50;;;;;;;;;;5007522;28;20026;-78
2024/01/05 14:16:17;;;;;;;4.13;0.70;;;;;;;;;;5021889;28;20323;-79
2024/01/05 14:18:54;;;;;;;4.80;0.63;;;;;;;;;;5021920;28;20018;-77
2024/01/05 14:21:23;;;;;;;3.83;0.80;;;;;;;;;;5003880;28;20025;-79
2024/01/05 14:23:56;;;;;;;3.57;0.60;;;;;;;;;;5003029;28;20022;-79
2024/01/05 14:26:32;;;;;;;4.43;1.03;;;;;;;;;;5004137;28;20062;-77
2024/01/05 14:29:04;;;;;;;4.97;0.97;;;;;;;;;;5004611;28;20404;-78
2024/01/05 14:31:34;;;;;;;5.28;1.13;;;;;;;;;;5005024;28;20015;-78
2024/01/05 14:34:03;;;;;;;2.37;1.00;;;;;;;;;;5013378;28;20026;-77
2024/01/05 14:36:34;;;;;;;7.27;0.80;;;;;;;;;;5004759;28;20078;-77
2024/01/05 14:39:32;;;;;;;2.27;0.83;;;;;;;;;;5007643;28;20073;-77
2024/01/05 14:42:06;;;;;;;3.00;0.80;;;;;;;;;;5003877;28;20033;-77
2024/01/05 14:44:37;;;;;;;2.33;0.70;;;;;;;;;;5020896;28;20037;-78
2024/01/05 14:47:13;;;;;;;9.00;1.00;;;;;;;;;;5000316;28;20029;-79
2024/01/05 14:49:47;;;;;;;5.73;1.80;;;;;;;;;;5002688;28;20041;-78
2024/01/05 14:52:14;;;;;;;4.53;0.73;;;;;;;;;;5020018;28;20029;-78
2024/01/05 14:54:42;;;;;;;6.73;0.87;;;;;;;;;;5017226;23;20065;-78
2024/01/05 14:57:18;;;;;;;5.97;1.40;;;;;;;;;;5001160;28;20039;-77
2024/01/05 15:00:20;;;;;;;3.00;0.77;;;;;;;;;;5002398;28;20102;-78
2024/01/05 15:03:01;;;;;;;6.83;1.00;;;;;;;;;;4999619;28;20094;-78
2024/01/05 15:08:24;;;;;;;6.33;2.03;;;;;;;;;;4991039;28;20022;-78
2024/01/05 15:11:42;;;;;;;4.13;0.80;;;;;;;;;;5003664;28;20129;-78
2024/01/05 15:14:09;;;;;;;;;;;;;;;;;;;;;
2024/01/05 15:16:56;;;;;;;4.40;1.33;;;;;;;;;;5005242;28;20023;-78
2024/01/05 15:19:45;;;;;;;5.10;1.57;;;;;;;;;;5004091;28;20102;-80
2024/01/05 15:25:18;;;;;;;2.20;0.60;;;;;;;;;;5005481;28;20019;-78
2024/01/05 15:27:52;;;;;;;1.90;0.60;;;;;;;;;;5005114;28;20023;-79
2024/01/05 15:30:20;;;;;;;5.60;0.80;;;;;;;;;;5002151;28;21607;-78
2024/01/05 15:32:56;;;;;;;3.40;1.23;;;;;;;;;;5004739;28;20027;-78
2024/01/05 15:35:38;;;;;;;8.87;1.97;;;;;;;;;;5004510;28;20027;-78
2024/01/05 15:38:24;;;;;;;3.43;0.47;;;;;;;;;;5004498;28;20086;-78
2024/01/05 15:41:13;;;;;;;7.70;1.57;;;;;;;;;;5003602;28;20107;-78
2024/01/05 15:43:42;;;;;;;4.43;0.43;;;;;;;;;;4999832;28;20063;-78
2024/01/05 15:46:26;;;;;;;3.30;0.90;;;;;;;;;;4992321;28;20046;-78
2024/01/05 15:49:46;;;;;;;2.87;0.53;;;;;;;;;;5002665;28;20050;-78
2024/01/05 15:52:19;;;;;;;2.43;0.40;;;;;;;;;;4991641;28;20019;-78
2024/01/05 15:55:26;;;;;;;3.80;0.50;;;;;;;;;;4987518;28;20061;-79
2024/01/05 15:57:50;;;;;;;2.20;0.47;;;;;;;;;;5002962;28;20050;-79
2024/01/05 16:00:27;;;;;;;2.90;0.83;;;;;;;;;;5003028;28;21425;-78
2024/01/05 16:03:12;;;;;;;;;;;;;;;;;;;;;